createdAt,value
2019-05-22T00:00:41.196Z,0.00
2019-05-22T00:01:41.214Z,0.00
2019-05-22T00:02:41.249Z,0.00
2019-05-22T00:03:41.150Z,0.00
2019-05-22T00:04:41.636Z,0.00
2019-05-22T00:05:41.128Z,0.00
2019-05-22T00:06:41.146Z,0.00
2019-05-22T00:07:41.115Z,0.00
2019-05-22T00:08:41.185Z,0.00
2019-05-22T00:09:41.088Z,0.00
2019-05-22T00:10:41.080Z,0.00
2019-05-22T00:11:41.142Z,0.00
2019-05-22T00:12:46.802Z,0.00
2019-05-22T00:13:42.044Z,0.00
2019-05-22T00:14:41.029Z,0.00
2019-05-22T00:15:41.022Z,0.00
2019-05-22T00:16:41.084Z,0.00
2019-05-22T00:17:40.992Z,0.00
2019-05-22T00:18:40.982Z,0.00
2019-05-22T00:19:40.982Z,0.00
2019-05-22T00:20:41.040Z,0.00
2019-05-22T00:21:40.949Z,0.00
2019-05-22T00:22:40.935Z,0.00
2019-05-22T00:23:40.928Z,0.00
2019-05-22T00:24:40.919Z,0.00
2019-05-22T00:25:41.688Z,0.00
2019-05-22T00:26:40.890Z,0.00
2019-05-22T00:27:40.885Z,0.00
2019-05-22T00:28:40.951Z,0.00
2019-05-22T00:29:40.877Z,0.00
2019-05-22T00:30:40.859Z,0.00
2019-05-22T00:31:40.842Z,0.00
2019-05-22T00:32:40.820Z,0.00
2019-05-22T00:33:40.815Z,0.00
2019-05-22T00:34:40.905Z,0.00
2019-05-22T00:35:40.784Z,0.00
2019-05-22T00:36:40.778Z,0.00
2019-05-22T00:37:40.779Z,0.00
2019-05-22T00:38:40.754Z,0.00
2019-05-22T00:39:40.743Z,0.00
2019-05-22T00:40:40.816Z,0.00
2019-05-22T00:41:40.721Z,0.00
2019-05-22T00:42:40.718Z,0.00
2019-05-22T00:43:40.711Z,0.00
2019-05-22T00:44:40.682Z,0.00
2019-05-22T00:45:40.672Z,0.00
2019-05-22T00:46:40.746Z,0.00
2019-05-22T00:47:40.650Z,0.00
2019-05-22T00:48:40.642Z,0.00
2019-05-22T00:49:40.733Z,0.00
2019-05-22T00:50:40.626Z,0.00
2019-05-22T00:51:40.702Z,0.00
2019-05-22T00:52:41.183Z,0.00
2019-05-22T00:53:40.585Z,0.00
2019-05-22T00:54:40.575Z,0.00
2019-05-22T00:55:40.570Z,0.00
2019-05-22T00:56:40.636Z,0.00
2019-05-22T00:57:40.625Z,0.00
2019-05-22T00:58:40.529Z,0.00
2019-05-22T00:59:40.517Z,0.00
2019-05-22T01:00:40.532Z,0.00
2019-05-22T01:01:40.495Z,0.00
2019-05-22T01:02:40.574Z,0.00
2019-05-22T01:03:40.464Z,0.00
2019-05-22T01:04:40.471Z,0.00
2019-05-22T01:05:40.446Z,0.00
2019-05-22T01:06:40.430Z,0.00
2019-05-22T01:07:40.684Z,0.00
2019-05-22T01:08:40.425Z,0.00
2019-05-22T01:09:40.398Z,0.00
2019-05-22T01:10:40.395Z,0.00
2019-05-22T01:11:40.382Z,0.00
2019-05-22T01:12:40.445Z,0.00
2019-05-22T01:13:40.434Z,0.00
2019-05-22T01:14:42.847Z,0.00
2019-05-22T01:15:40.331Z,0.00
2019-05-22T01:16:40.327Z,0.00
2019-05-22T01:17:40.406Z,0.00
2019-05-22T01:18:40.302Z,0.00
2019-05-22T01:19:40.284Z,0.00
2019-05-22T01:20:40.286Z,0.00
2019-05-22T01:21:40.268Z,0.00
2019-05-22T01:22:40.250Z,0.00
2019-05-22T01:23:40.329Z,0.00
2019-05-22T01:24:40.230Z,0.00
2019-05-22T01:25:40.228Z,0.00
2019-05-22T01:26:40.212Z,0.00
2019-05-22T01:27:40.279Z,0.00
2019-05-22T01:28:40.191Z,0.00
2019-05-22T01:29:40.667Z,0.00
2019-05-22T01:30:40.166Z,0.00
2019-05-22T01:31:40.189Z,0.00
2019-05-22T01:32:40.138Z,0.00
2019-05-22T01:33:40.139Z,0.00
2019-05-22T01:34:40.685Z,0.00
2019-05-22T01:35:40.107Z,0.00
2019-05-22T01:36:40.091Z,0.00
2019-05-22T01:37:40.082Z,0.00
2019-05-22T01:38:40.070Z,0.00
2019-05-22T01:39:40.079Z,0.00
2019-05-22T01:40:40.127Z,0.00
2019-05-22T01:41:40.039Z,0.00
2019-05-22T01:42:40.021Z,0.00
2019-05-22T01:43:40.104Z,0.00
2019-05-22T01:44:40.001Z,0.00
2019-05-22T01:45:40.007Z,0.00
2019-05-22T01:46:40.216Z,0.00
2019-05-22T01:47:39.964Z,0.00
2019-05-22T01:48:39.955Z,0.00
2019-05-22T01:49:39.942Z,0.00
2019-05-22T01:50:39.935Z,0.00
2019-05-22T01:51:40.174Z,0.00
2019-05-22T01:52:39.933Z,0.00
2019-05-22T01:53:39.896Z,0.00
2019-05-22T01:54:39.888Z,0.00
2019-05-22T01:55:39.875Z,0.00
2019-05-22T01:56:39.871Z,0.00
2019-05-22T01:57:40.667Z,0.00
2019-05-22T01:58:39.850Z,0.00
2019-05-22T01:59:39.828Z,0.00
2019-05-22T02:00:39.822Z,0.00
2019-05-22T02:01:39.834Z,0.00
2019-05-22T02:02:39.869Z,0.00
2019-05-22T02:03:39.831Z,0.00
2019-05-22T02:04:39.793Z,0.00
2019-05-22T02:05:39.804Z,0.00
2019-05-22T02:06:39.753Z,0.00
2019-05-22T02:07:39.777Z,0.00
2019-05-22T02:08:39.741Z,0.00
2019-05-22T02:09:39.718Z,0.00
2019-05-22T02:10:39.769Z,0.00
2019-05-22T02:11:39.744Z,0.00
2019-05-22T02:12:39.685Z,0.00
2019-05-22T02:13:39.676Z,0.00
2019-05-22T02:14:41.484Z,0.00
2019-05-22T02:15:39.698Z,0.00
2019-05-22T02:16:55.593Z,0.00
2019-05-22T02:17:40.624Z,0.00
2019-05-22T02:18:39.666Z,0.00
2019-05-22T02:19:39.662Z,0.00
2019-05-22T02:20:39.597Z,0.00
2019-05-22T02:21:39.583Z,0.00
2019-05-22T02:22:39.588Z,0.00
2019-05-22T02:23:39.600Z,0.00
2019-05-22T02:24:39.560Z,0.00
2019-05-22T02:25:39.546Z,0.00
2019-05-22T02:26:39.527Z,0.00
2019-05-22T02:27:39.511Z,0.00
2019-05-22T02:28:39.511Z,0.00
2019-05-22T02:29:39.598Z,0.00
2019-05-22T02:30:39.581Z,0.00
2019-05-22T02:31:39.471Z,0.00
2019-05-22T02:32:39.460Z,0.00
2019-05-22T02:33:39.485Z,0.00
2019-05-22T02:34:39.446Z,0.00
2019-05-22T02:35:39.442Z,0.00
2019-05-22T02:36:39.423Z,0.00
2019-05-22T02:37:39.610Z,0.00
2019-05-22T02:38:39.601Z,0.00
2019-05-22T02:39:39.378Z,0.00
2019-05-22T02:40:39.606Z,0.00
2019-05-22T02:41:39.358Z,0.00
2019-05-22T02:42:39.347Z,0.00
2019-05-22T02:43:39.329Z,0.00
2019-05-22T02:44:39.367Z,0.00
2019-05-22T02:45:39.309Z,0.00
2019-05-22T02:46:39.615Z,0.00
2019-05-22T02:47:39.317Z,0.00
2019-05-22T02:48:42.303Z,0.00
2019-05-22T02:49:39.269Z,0.00
2019-05-22T02:50:39.307Z,0.00
2019-05-22T02:51:39.242Z,0.00
2019-05-22T02:52:39.228Z,0.00
2019-05-22T02:53:39.269Z,0.00
2019-05-22T02:54:39.207Z,0.00
2019-05-22T02:55:39.190Z,0.00
2019-05-22T02:56:39.593Z,0.00
2019-05-22T02:57:39.174Z,0.00
2019-05-22T02:58:39.164Z,0.00
2019-05-22T02:59:39.165Z,0.00
2019-05-22T03:00:39.180Z,0.00
2019-05-22T03:01:39.123Z,0.00
2019-05-22T03:02:39.123Z,0.00
2019-05-22T03:03:39.098Z,0.00
2019-05-22T03:04:39.098Z,0.00
2019-05-22T03:05:39.111Z,0.00
2019-05-22T03:06:39.110Z,0.00
2019-05-22T03:07:39.063Z,0.00
2019-05-22T03:08:39.048Z,0.00
2019-05-22T03:09:39.039Z,0.00
2019-05-22T03:10:39.075Z,0.00
2019-05-22T03:11:39.102Z,0.00
2019-05-22T03:12:39.079Z,4.00
2019-05-22T03:13:39.040Z,4.00
2019-05-22T03:14:38.988Z,4.00
2019-05-22T03:15:39.011Z,4.00
2019-05-22T03:16:38.959Z,0.00
2019-05-22T03:17:38.948Z,4.00
2019-05-22T03:18:38.936Z,4.00
2019-05-22T03:19:38.937Z,4.00
2019-05-22T03:20:38.911Z,4.00
2019-05-22T03:21:38.945Z,8.00
2019-05-22T03:22:39.612Z,8.00
2019-05-22T03:23:38.892Z,8.00
2019-05-22T03:24:38.866Z,12.00
2019-05-22T03:25:38.855Z,8.00
2019-05-22T03:26:38.854Z,12.00
2019-05-22T03:27:38.886Z,12.00
2019-05-22T03:28:38.864Z,16.00
2019-05-22T03:29:38.852Z,16.00
2019-05-22T03:30:38.806Z,20.00
2019-05-22T03:31:38.781Z,16.00
2019-05-22T03:32:43.397Z,20.00
2019-05-22T03:33:43.133Z,20.00
2019-05-22T03:34:38.790Z,24.00
2019-05-22T03:35:38.745Z,24.00
2019-05-22T03:36:38.741Z,24.00
2019-05-22T03:37:38.720Z,28.00
2019-05-22T03:38:38.710Z,32.00
2019-05-22T03:39:38.705Z,32.00
2019-05-22T03:40:38.736Z,36.00
2019-05-22T03:41:38.719Z,40.00
2019-05-22T03:42:38.663Z,40.00
2019-05-22T03:43:38.654Z,44.00
2019-05-22T03:44:38.638Z,52.00
2019-05-22T03:45:38.649Z,56.00
2019-05-22T03:46:38.658Z,64.00
2019-05-22T03:47:38.603Z,68.00
2019-05-22T03:48:38.631Z,68.00
2019-05-22T03:49:38.578Z,76.00
2019-05-22T03:50:38.579Z,84.00
2019-05-22T03:51:39.095Z,88.00
2019-05-22T03:52:38.550Z,104.00
2019-05-22T03:53:38.532Z,124.00
2019-05-22T03:54:38.522Z,128.00
2019-05-22T03:55:38.511Z,132.00
2019-05-22T03:56:38.620Z,120.00
2019-05-22T03:57:38.502Z,128.00
2019-05-22T03:58:38.491Z,132.00
2019-05-22T03:59:38.466Z,148.00
2019-05-22T04:00:42.995Z,152.00
2019-05-22T04:01:39.482Z,156.00
2019-05-22T04:02:38.456Z,164.00
2019-05-22T04:03:38.423Z,172.00
2019-05-22T04:04:38.427Z,172.00
2019-05-22T04:05:38.396Z,172.00
2019-05-22T04:06:38.431Z,180.00
2019-05-22T04:07:38.379Z,180.00
2019-05-22T04:08:38.419Z,188.00
2019-05-22T04:09:38.375Z,180.00
2019-05-22T04:10:40.980Z,180.00
2019-05-22T04:11:38.604Z,176.00
2019-05-22T04:12:38.322Z,184.00
2019-05-22T04:13:38.307Z,188.00
2019-05-22T04:14:39.088Z,192.00
2019-05-22T04:15:38.308Z,192.00
2019-05-22T04:16:38.322Z,184.00
2019-05-22T04:17:38.263Z,188.00
2019-05-22T04:18:38.254Z,188.00
2019-05-22T04:19:49.355Z,192.00
2019-05-22T04:20:39.309Z,196.00
2019-05-22T04:21:38.221Z,200.00
2019-05-22T04:22:38.205Z,208.00
2019-05-22T04:23:38.227Z,212.00
2019-05-22T04:24:38.240Z,224.00
2019-05-22T04:25:38.180Z,224.00
2019-05-22T04:26:38.196Z,224.00
2019-05-22T04:27:38.163Z,216.00
2019-05-22T04:28:38.137Z,208.00
2019-05-22T04:29:38.129Z,204.00
2019-05-22T04:30:38.160Z,204.00
2019-05-22T04:31:38.115Z,212.00
2019-05-22T04:32:38.112Z,212.00
2019-05-22T04:33:38.082Z,212.00
2019-05-22T04:34:38.071Z,220.00
2019-05-22T04:35:38.087Z,228.00
2019-05-22T04:36:38.100Z,248.00
2019-05-22T04:37:38.037Z,280.00
2019-05-22T04:38:38.078Z,300.00
2019-05-22T04:39:38.030Z,320.00
2019-05-22T04:40:38.096Z,316.00
2019-05-22T04:41:37.999Z,292.00
2019-05-22T04:42:37.982Z,292.00
2019-05-22T04:43:38.592Z,316.00
2019-05-22T04:44:37.961Z,324.00
2019-05-22T04:45:37.998Z,332.00
2019-05-22T04:46:37.935Z,356.00
2019-05-22T04:47:37.931Z,360.00
2019-05-22T04:48:38.606Z,388.00
2019-05-22T04:49:37.896Z,412.00
2019-05-22T04:50:37.891Z,396.00
2019-05-22T04:51:37.876Z,416.00
2019-05-22T04:52:37.863Z,424.00
2019-05-22T04:53:38.590Z,472.00
2019-05-22T04:54:37.867Z,536.00
2019-05-22T04:55:37.828Z,608.00
2019-05-22T04:56:37.824Z,640.00
2019-05-22T04:57:37.807Z,628.00
2019-05-22T04:58:38.087Z,660.00
2019-05-22T04:59:37.789Z,656.00
2019-05-22T05:00:37.893Z,684.00
2019-05-22T05:01:45.498Z,716.00
2019-05-22T05:02:37.753Z,776.00
2019-05-22T05:03:37.819Z,860.00
2019-05-22T05:04:37.734Z,872.00
2019-05-22T05:05:37.718Z,828.00
2019-05-22T05:06:37.814Z,808.00
2019-05-22T05:07:37.736Z,764.00
2019-05-22T05:08:37.703Z,752.00
2019-05-22T05:09:37.679Z,788.00
2019-05-22T05:10:37.669Z,852.00
2019-05-22T05:11:37.738Z,916.00
2019-05-22T05:12:37.651Z,940.00
2019-05-22T05:13:37.661Z,964.00
2019-05-22T05:14:37.613Z,980.00
2019-05-22T05:15:37.611Z,940.00
2019-05-22T05:16:37.982Z,924.00
2019-05-22T05:17:37.623Z,928.00
2019-05-22T05:18:37.566Z,944.00
2019-05-22T05:19:37.767Z,940.00
2019-05-22T05:20:37.699Z,944.00
2019-05-22T05:21:37.545Z,948.00
2019-05-22T05:22:37.536Z,952.00
2019-05-22T05:23:37.573Z,900.00
2019-05-22T05:24:37.521Z,832.00
2019-05-22T05:25:37.495Z,792.00
2019-05-22T05:26:37.487Z,780.00
2019-05-22T05:27:37.502Z,796.00
2019-05-22T05:28:37.472Z,828.00
2019-05-22T05:29:37.509Z,868.00
2019-05-22T05:30:37.457Z,936.00
2019-05-22T05:31:37.426Z,1028.00
2019-05-22T05:32:37.433Z,1088.00
2019-05-22T05:33:37.453Z,1112.00
2019-05-22T05:34:37.399Z,1132.00
2019-05-22T05:35:37.444Z,1132.00
2019-05-22T05:36:37.387Z,1144.00
2019-05-22T05:37:37.361Z,1164.00
2019-05-22T05:38:37.345Z,1200.00
2019-05-22T05:39:37.381Z,1200.00
2019-05-22T05:40:37.382Z,1220.00
2019-05-22T05:41:37.327Z,1288.00
2019-05-22T05:42:37.311Z,1340.00
2019-05-22T05:43:37.376Z,1344.00
2019-05-22T05:44:37.355Z,1288.00
2019-05-22T05:45:37.304Z,1188.00
2019-05-22T05:46:37.267Z,1188.00
2019-05-22T05:47:37.305Z,1276.00
2019-05-22T05:48:37.324Z,1352.00
2019-05-22T05:49:37.253Z,1380.00
2019-05-22T05:50:40.142Z,1432.00
2019-05-22T05:51:37.276Z,1444.00
2019-05-22T05:52:37.210Z,1412.00
2019-05-22T05:53:37.228Z,1424.00
2019-05-22T05:54:37.212Z,1536.00
2019-05-22T05:55:37.176Z,1668.00
2019-05-22T05:56:37.621Z,1756.00
2019-05-22T05:57:37.134Z,1804.00
2019-05-22T05:58:37.202Z,1856.00
2019-05-22T05:59:37.176Z,1920.00
2019-05-22T06:00:37.124Z,1924.00
2019-05-22T06:01:37.105Z,1944.00
2019-05-22T06:02:37.119Z,2020.00
2019-05-22T06:03:37.113Z,2084.00
2019-05-22T06:04:37.079Z,2052.00
2019-05-22T06:05:37.112Z,1976.00
2019-05-22T06:06:37.028Z,1896.00
2019-05-22T06:07:37.054Z,1728.00
2019-05-22T06:08:37.016Z,1712.00
2019-05-22T06:09:37.047Z,1736.00
2019-05-22T06:10:37.016Z,1752.00
2019-05-22T06:11:37.073Z,1760.00
2019-05-22T06:12:36.987Z,1776.00
2019-05-22T06:13:37.004Z,1764.00
2019-05-22T06:14:37.013Z,1804.00
2019-05-22T06:15:46.571Z,1888.00
2019-05-22T06:16:37.937Z,1880.00
2019-05-22T06:17:36.927Z,1864.00
2019-05-22T06:18:36.898Z,1944.00
2019-05-22T06:19:36.882Z,2016.00
2019-05-22T06:20:38.721Z,2060.00
2019-05-22T06:21:38.525Z,2068.00
2019-05-22T06:22:36.921Z,2064.00
2019-05-22T06:23:36.877Z,2036.00
2019-05-22T06:24:37.016Z,2076.00
2019-05-22T06:25:36.954Z,2100.00
2019-05-22T06:26:36.842Z,2164.00
2019-05-22T06:27:36.874Z,2196.00
2019-05-22T06:28:37.963Z,2248.00
2019-05-22T06:29:37.001Z,2336.00
2019-05-22T06:30:37.165Z,2440.00
2019-05-22T06:31:38.658Z,2644.00
2019-05-22T06:32:36.812Z,2788.00
2019-05-22T06:33:37.172Z,2736.00
2019-05-22T06:34:36.763Z,2744.00
2019-05-22T06:35:36.697Z,2832.00
2019-05-22T06:36:36.756Z,3000.00
2019-05-22T06:37:36.690Z,3092.00
2019-05-22T06:38:36.676Z,3112.00
2019-05-22T06:39:36.695Z,3152.00
2019-05-22T06:40:36.674Z,3200.00
2019-05-22T06:41:36.660Z,3308.00
2019-05-22T06:42:36.626Z,3324.00
2019-05-22T06:43:36.688Z,3316.00
2019-05-22T06:44:36.611Z,3316.00
2019-05-22T06:45:36.590Z,3268.00
2019-05-22T06:46:36.588Z,3236.00
2019-05-22T06:47:43.311Z,3200.00
2019-05-22T06:48:37.605Z,3120.00
2019-05-22T06:49:36.599Z,3048.00
2019-05-22T06:50:36.522Z,3056.00
2019-05-22T06:51:36.521Z,3012.00
2019-05-22T06:52:36.742Z,2988.00
2019-05-22T06:53:36.505Z,3036.00
2019-05-22T06:54:36.515Z,3100.00
2019-05-22T06:55:36.538Z,3084.00
2019-05-22T06:56:36.471Z,3136.00
2019-05-22T06:57:36.454Z,3308.00
2019-05-22T06:58:36.441Z,3356.00
2019-05-22T06:59:36.450Z,3324.00
2019-05-22T07:00:36.417Z,3372.00
2019-05-22T07:01:36.538Z,3424.00
2019-05-22T07:02:36.459Z,3564.00
2019-05-22T07:03:36.639Z,3732.00
2019-05-22T07:04:36.573Z,3828.00
2019-05-22T07:05:36.410Z,3796.00
2019-05-22T07:06:36.415Z,3696.00
2019-05-22T07:07:36.366Z,3580.00
2019-05-22T07:08:36.379Z,3444.00
2019-05-22T07:09:36.362Z,3352.00
2019-05-22T07:10:36.483Z,3292.00
2019-05-22T07:11:36.285Z,3304.00
2019-05-22T07:12:36.365Z,3352.00
2019-05-22T07:13:36.418Z,3440.00
2019-05-22T07:14:36.266Z,3544.00
2019-05-22T07:15:37.118Z,3740.00
2019-05-22T07:16:36.368Z,3884.00
2019-05-22T07:17:36.225Z,4036.00
2019-05-22T07:18:36.904Z,4092.00
2019-05-22T07:19:36.215Z,4000.00
2019-05-22T07:20:36.191Z,4004.00
2019-05-22T07:21:36.223Z,4080.00
2019-05-22T07:22:36.214Z,4164.00
2019-05-22T07:23:36.162Z,4252.00
2019-05-22T07:24:36.155Z,4356.00
2019-05-22T07:25:36.162Z,4432.00
2019-05-22T07:26:36.191Z,4476.00
2019-05-22T07:27:36.167Z,4444.00
2019-05-22T07:28:36.151Z,4476.00
2019-05-22T07:29:36.088Z,4596.00
2019-05-22T07:30:36.142Z,4644.00
2019-05-22T07:31:36.059Z,4664.00
2019-05-22T07:32:36.113Z,4656.00
2019-05-22T07:33:36.093Z,4672.00
2019-05-22T07:34:36.030Z,4680.00
2019-05-22T07:35:56.345Z,4744.00
2019-05-22T07:36:37.005Z,4868.00
2019-05-22T07:37:35.999Z,4952.00
2019-05-22T07:38:36.025Z,4948.00
2019-05-22T07:39:36.005Z,4996.00
2019-05-22T07:40:36.021Z,5224.00
2019-05-22T07:41:35.950Z,5468.00
2019-05-22T07:42:35.943Z,5624.00
2019-05-22T07:43:40.770Z,5700.00
2019-05-22T07:44:37.184Z,5788.00
2019-05-22T07:45:35.949Z,5884.00
2019-05-22T07:46:35.912Z,5940.00
2019-05-22T07:47:35.935Z,5904.00
2019-05-22T07:48:35.873Z,5928.00
2019-05-22T07:49:35.895Z,6100.00
2019-05-22T07:50:35.861Z,6252.00
2019-05-22T07:51:50.423Z,6296.00
2019-05-22T07:52:36.827Z,6444.00
2019-05-22T07:53:35.819Z,6492.00
2019-05-22T07:54:35.827Z,6600.00
2019-05-22T07:55:35.788Z,6760.00
2019-05-22T07:56:35.832Z,6916.00
2019-05-22T07:57:35.789Z,7056.00
2019-05-22T07:58:35.769Z,7128.00
2019-05-22T07:59:35.759Z,7340.00
2019-05-22T08:00:35.813Z,7428.00
2019-05-22T08:01:35.716Z,7292.00
2019-05-22T08:02:35.863Z,7236.00
2019-05-22T08:03:35.713Z,7284.00
2019-05-22T08:04:35.713Z,7152.00
2019-05-22T08:05:35.677Z,6900.00
2019-05-22T08:06:35.708Z,6728.00
2019-05-22T08:07:35.739Z,6780.00
2019-05-22T08:08:35.705Z,6884.00
2019-05-22T08:09:35.676Z,6876.00
2019-05-22T08:10:35.659Z,6928.00
2019-05-22T08:11:35.608Z,7060.00
2019-05-22T08:12:35.595Z,7188.00
2019-05-22T08:13:35.618Z,7164.00
2019-05-22T08:14:35.619Z,7108.00
2019-05-22T08:15:35.559Z,6996.00
2019-05-22T08:16:35.593Z,6896.00
2019-05-22T08:17:35.586Z,6884.00
2019-05-22T08:18:35.555Z,6988.00
2019-05-22T08:19:35.541Z,7124.00
2019-05-22T08:20:35.582Z,7240.00
2019-05-22T08:21:35.543Z,7228.00
2019-05-22T08:22:35.533Z,7156.00
2019-05-22T08:23:35.561Z,7168.00
2019-05-22T08:24:35.482Z,7200.00
2019-05-22T08:25:35.519Z,7228.00
2019-05-22T08:26:51.596Z,7256.00
2019-05-22T08:27:36.556Z,7256.00
2019-05-22T08:28:35.410Z,7104.00
2019-05-22T08:29:35.467Z,7024.00
2019-05-22T08:30:35.425Z,7020.00
2019-05-22T08:31:35.460Z,6968.00
2019-05-22T08:32:35.383Z,7056.00
2019-05-22T08:33:35.438Z,7144.00
2019-05-22T08:34:35.412Z,7136.00
2019-05-22T08:35:35.538Z,7256.00
2019-05-22T08:36:38.485Z,7492.00
2019-05-22T08:37:35.312Z,7592.00
2019-05-22T08:38:35.318Z,7648.00
2019-05-22T08:39:35.290Z,7872.00
2019-05-22T08:40:35.300Z,8068.00
2019-05-22T08:41:35.374Z,8372.00
2019-05-22T08:42:35.754Z,8756.00
2019-05-22T08:43:56.115Z,8832.00
2019-05-22T08:44:36.236Z,8760.00
2019-05-22T08:45:35.245Z,8932.00
2019-05-22T08:46:35.256Z,9224.00
2019-05-22T08:47:35.206Z,9440.00
2019-05-22T08:48:35.189Z,9436.00
2019-05-22T08:49:35.213Z,9640.00
2019-05-22T08:50:35.177Z,9996.00
2019-05-22T08:51:35.170Z,10208.00
2019-05-22T08:52:35.216Z,10332.00
2019-05-22T08:53:46.821Z,10492.00
2019-05-22T08:54:36.137Z,10764.00
2019-05-22T08:55:35.254Z,11196.00
2019-05-22T08:56:35.147Z,11812.00
2019-05-22T08:57:35.120Z,12364.00
2019-05-22T08:58:35.132Z,12752.00
2019-05-22T08:59:35.095Z,12976.00
2019-05-22T09:00:35.074Z,13076.00
2019-05-22T09:01:35.045Z,12976.00
2019-05-22T09:02:35.088Z,12720.00
2019-05-22T09:03:35.078Z,12540.00
2019-05-22T09:04:35.026Z,12604.00
2019-05-22T09:05:35.146Z,12700.00
2019-05-22T09:06:35.004Z,12740.00
2019-05-22T09:07:35.029Z,12820.00
2019-05-22T09:08:34.998Z,12860.00
2019-05-22T09:09:34.961Z,13064.00
2019-05-22T09:10:35.101Z,13272.00
2019-05-22T09:11:34.950Z,13532.00
2019-05-22T09:12:34.965Z,13620.00
2019-05-22T09:13:35.031Z,13744.00
2019-05-22T09:14:34.915Z,13888.00
2019-05-22T09:15:34.936Z,14028.00
2019-05-22T09:16:34.868Z,14076.00
2019-05-22T09:17:34.918Z,13888.00
2019-05-22T09:18:35.116Z,13768.00
2019-05-22T09:19:34.861Z,13984.00
2019-05-22T09:20:48.614Z,14364.00
2019-05-22T09:21:35.809Z,14676.00
2019-05-22T09:22:40.526Z,14872.00
2019-05-22T09:23:36.162Z,14980.00
2019-05-22T09:24:34.852Z,14944.00
2019-05-22T09:25:34.820Z,14768.00
2019-05-22T09:26:34.826Z,14616.00
2019-05-22T09:27:34.958Z,14680.00
2019-05-22T09:28:34.809Z,15032.00
2019-05-22T09:29:34.728Z,15468.00
2019-05-22T09:30:35.269Z,15684.00
2019-05-22T09:31:34.765Z,15284.00
2019-05-22T09:32:34.747Z,15120.00
2019-05-22T09:33:34.784Z,15028.00
2019-05-22T09:34:34.815Z,14852.00
2019-05-22T09:35:35.103Z,14556.00
2019-05-22T09:36:34.759Z,14440.00
2019-05-22T09:37:34.718Z,14696.00
2019-05-22T09:38:35.627Z,14964.00
2019-05-22T09:39:34.665Z,15064.00
2019-05-22T09:40:34.662Z,14864.00
2019-05-22T09:41:34.707Z,14956.00
2019-05-22T09:42:34.655Z,15208.00
2019-05-22T09:43:34.693Z,15424.00
2019-05-22T09:44:34.579Z,15600.00
2019-05-22T09:45:34.544Z,15700.00
2019-05-22T09:46:34.878Z,15692.00
2019-05-22T09:47:34.766Z,15816.00
2019-05-22T09:48:34.534Z,15924.00
2019-05-22T09:49:34.575Z,15876.00
2019-05-22T09:50:34.516Z,15496.00
2019-05-22T09:51:34.484Z,14972.00
2019-05-22T09:52:34.479Z,14708.00
2019-05-22T09:53:34.477Z,14532.00
2019-05-22T09:54:34.541Z,14340.00
2019-05-22T09:55:34.520Z,14320.00
2019-05-22T09:56:34.469Z,14400.00
2019-05-22T09:57:34.460Z,14356.00
2019-05-22T09:58:34.395Z,14680.00
2019-05-22T09:59:34.514Z,15192.00
2019-05-22T10:00:34.377Z,15680.00
2019-05-22T10:01:34.409Z,16080.00
2019-05-22T10:02:34.368Z,15692.00
2019-05-22T10:03:34.360Z,15456.00
2019-05-22T10:04:34.358Z,15408.00
2019-05-22T10:05:34.470Z,15496.00
2019-05-22T10:06:34.337Z,15536.00
2019-05-22T10:07:34.321Z,15316.00
2019-05-22T10:08:34.421Z,14904.00
2019-05-22T10:09:34.281Z,14420.00
2019-05-22T10:10:34.393Z,14004.00
2019-05-22T10:11:34.303Z,13504.00
2019-05-22T10:12:34.255Z,12788.00
2019-05-22T10:13:34.367Z,12044.00
2019-05-22T10:14:34.220Z,11500.00
2019-05-22T10:15:34.295Z,10960.00
2019-05-22T10:16:34.205Z,10708.00
2019-05-22T10:17:34.191Z,11116.00
2019-05-22T10:18:34.282Z,11784.00
2019-05-22T10:19:34.309Z,11632.00
2019-05-22T10:20:34.186Z,12384.00
2019-05-22T10:21:34.159Z,13060.00
2019-05-22T10:22:34.139Z,13756.00
2019-05-22T10:23:34.341Z,14280.00
2019-05-22T10:24:34.617Z,14816.00
2019-05-22T10:25:34.180Z,14504.00
2019-05-22T10:26:34.157Z,14840.00
2019-05-22T10:27:34.265Z,13700.00
2019-05-22T10:28:34.130Z,13112.00
2019-05-22T10:29:34.052Z,12980.00
2019-05-22T10:30:34.076Z,13040.00
2019-05-22T10:31:34.034Z,13452.00
2019-05-22T10:32:34.153Z,13880.00
2019-05-22T10:33:34.006Z,14028.00
2019-05-22T10:34:34.092Z,14032.00
2019-05-22T10:35:34.013Z,12696.00
2019-05-22T10:36:34.098Z,12168.00
2019-05-22T10:37:33.984Z,11936.00
2019-05-22T10:38:33.979Z,11616.00
2019-05-22T10:39:33.966Z,11612.00
2019-05-22T10:40:33.995Z,12840.00
2019-05-22T10:41:33.967Z,13164.00
2019-05-22T10:42:33.913Z,13196.00
2019-05-22T10:43:34.071Z,13088.00
2019-05-22T10:44:33.976Z,13132.00
2019-05-22T10:45:34.012Z,13120.00
2019-05-22T10:46:33.892Z,12824.00
2019-05-22T10:47:33.870Z,12588.00
2019-05-22T10:48:34.238Z,12220.00
2019-05-22T10:49:33.903Z,12112.00
2019-05-22T10:50:34.106Z,12476.00
2019-05-22T10:51:34.319Z,12444.00
2019-05-22T10:52:33.843Z,13184.00
2019-05-22T10:53:34.503Z,13656.00
2019-05-22T10:54:33.899Z,13968.00
2019-05-22T10:55:33.773Z,12488.00
2019-05-22T10:56:34.636Z,13156.00
2019-05-22T10:57:33.816Z,13860.00
2019-05-22T10:58:33.810Z,14428.00
2019-05-22T10:59:33.842Z,14620.00
2019-05-22T11:00:33.718Z,13908.00
2019-05-22T11:01:37.428Z,13752.00
2019-05-22T11:02:33.778Z,13716.00
2019-05-22T11:03:33.701Z,13228.00
2019-05-22T11:04:34.176Z,12916.00
2019-05-22T11:05:33.865Z,12568.00
2019-05-22T11:06:33.707Z,12132.00
2019-05-22T11:07:33.639Z,11920.00
2019-05-22T11:08:34.580Z,12160.00
2019-05-22T11:09:34.152Z,14104.00
2019-05-22T11:10:33.684Z,13576.00
2019-05-22T11:11:33.585Z,14520.00
2019-05-22T11:12:33.689Z,15268.00
2019-05-22T11:13:34.522Z,15708.00
2019-05-22T11:14:33.560Z,15908.00
2019-05-22T11:15:35.124Z,15628.00
2019-05-22T11:16:33.623Z,15584.00
2019-05-22T11:17:33.586Z,14292.00
2019-05-22T11:18:33.677Z,14432.00
2019-05-22T11:19:33.544Z,14896.00
2019-05-22T11:20:33.498Z,14080.00
2019-05-22T11:21:33.768Z,17120.00
2019-05-22T11:22:35.018Z,17248.00
2019-05-22T11:23:50.044Z,17024.00
2019-05-22T11:24:34.489Z,16416.00
2019-05-22T11:25:33.491Z,14188.00
2019-05-22T11:26:33.422Z,14068.00
2019-05-22T11:27:33.469Z,12572.00
2019-05-22T11:28:33.417Z,11112.00
2019-05-22T11:29:33.463Z,10928.00
2019-05-22T11:30:33.400Z,12684.00
2019-05-22T11:31:33.440Z,12972.00
2019-05-22T11:32:33.412Z,13296.00
2019-05-22T11:33:34.368Z,13532.00
2019-05-22T11:34:33.366Z,13504.00
2019-05-22T11:35:33.363Z,13408.00
2019-05-22T11:36:33.322Z,13172.00
2019-05-22T11:37:33.633Z,11096.00
2019-05-22T11:38:33.306Z,12212.00
2019-05-22T11:39:39.641Z,12384.00
2019-05-22T11:40:34.270Z,12680.00
2019-05-22T11:41:33.267Z,10460.00
2019-05-22T11:42:33.266Z,12804.00
2019-05-22T11:43:33.253Z,13268.00
2019-05-22T11:44:33.281Z,13420.00
2019-05-22T11:45:33.259Z,13388.00
2019-05-22T11:46:33.279Z,13244.00
2019-05-22T11:47:33.288Z,13004.00
2019-05-22T11:48:33.209Z,11920.00
2019-05-22T11:49:33.206Z,12304.00
2019-05-22T11:50:33.200Z,12364.00
2019-05-22T11:51:33.170Z,12280.00
2019-05-22T11:52:33.199Z,12400.00
2019-05-22T11:53:33.182Z,12508.00
2019-05-22T11:54:33.169Z,12300.00
2019-05-22T11:55:44.153Z,12116.00
2019-05-22T11:56:34.108Z,11660.00
2019-05-22T11:57:33.093Z,11640.00
2019-05-22T11:58:33.091Z,11964.00
2019-05-22T11:59:33.108Z,12060.00
2019-05-22T12:00:33.046Z,12356.00
2019-05-22T12:01:33.042Z,12584.00
2019-05-22T12:02:33.051Z,12848.00
2019-05-22T12:03:33.036Z,13056.00
2019-05-22T12:04:47.152Z,13376.00
2019-05-22T12:05:34.002Z,13972.00
2019-05-22T12:06:32.996Z,14728.00
2019-05-22T12:07:33.046Z,14588.00
2019-05-22T12:08:32.966Z,14100.00
2019-05-22T12:09:32.970Z,13772.00
2019-05-22T12:10:33.043Z,13284.00
2019-05-22T12:11:32.945Z,13060.00
2019-05-22T12:12:35.274Z,13540.00
2019-05-22T12:13:34.206Z,13496.00
2019-05-22T12:14:32.974Z,13644.00
2019-05-22T12:15:32.927Z,13516.00
2019-05-22T12:16:32.998Z,13560.00
2019-05-22T12:17:37.944Z,13676.00
2019-05-22T12:18:32.857Z,13688.00
2019-05-22T12:19:33.111Z,13856.00
2019-05-22T12:20:32.894Z,13844.00
2019-05-22T12:21:32.873Z,13980.00
2019-05-22T12:22:32.810Z,13968.00